Metar Report
Metar
METAR K1B1 170456Z AUTO 00000KT 10SM CLR 15/13 A3007 A02 43
METAR K1B1 170356Z AUTO 00000KT 10SM CLR 16/14 A3006 A02 42
METAR K1B1 170256Z AUTO 00000KT 10SM CLR 17/15 A3006 A02 41
METAR K1B1 170156Z AUTO 00000KT 10SM CLR 18/16 A3005 A02 40
METAR K1B1 170056Z AUTO 00000KT 10SM CLR 21/16 A3002 A02 39
METAR K1B1 162356Z AUTO 00000KT 10SM CLR 23/17 A3000 A02 38
METAR K1B1 162256Z AUTO 36003KT 10SM CLR 26/16 A2998 A02 37
METAR K1B1 162156Z AUTO 32003KT 10SM CLR 27/14 A2997 A02 36
METAR K1B1 162056Z AUTO 33005KT 10SM BKN055 28/16 A2997 A02 35
METAR K1B1 161956Z AUTO 36004KT 10SM SCT060 SCT070 28/16 A2997 A02 34
METAR K1B1 161856Z AUTO 36004KT 10SM SCT050 BKN060 28/17 A2997 A02 33
METAR K1B1 161756Z AUTO 36003KT 10SM SCT048 SCT060 SCT070 28/17 A2999 A02 32
METAR K1B1 161656Z AUTO 04008KT 10SM SCT039 BKN046 BKN065 27/17 A3000 A02 31
METAR K1B1 161556Z AUTO 35004KT 10SM SCT032 SCT040 SCT060 25/17 A3000 A02 30
METAR K1B1 161456Z AUTO 31004KT 10SM BKN026 BKN035 BKN044 25/19 A3001 A02 29
METAR K1B1 161356Z AUTO 36005KT 10SM SCT019 23/18 A3000 A02 28
METAR K1B1 161256Z AUTO 00000KT 10SM CLR 22/18 A3000 A02 27
METAR K1B1 161156Z AUTO 00000KT 10SM CLR 19/18 A2999 A02 26
METAR K1B1 161056Z AUTO 00000KT 10SM CLR 17/16 A2999 A02 25
METAR K1B1 160956Z AUTO 00000KT 7SM BR SCT002 16/16 A2998 A02 24
METAR K1B1 160856Z AUTO 00000KT 2SM BR OVC001 17/16 A2995 A02 23
METAR K1B1 160756Z AUTO 00000KT 10SM CLR 17/16 A2993 A02 22
METAR K1B1 160656Z AUTO 00000KT 10SM CLR 18/17 A2993 A02 21
METAR K1B1 160556Z AUTO 00000KT 10SM SCT010 19/18 A2992 A02 20
METAR K1B1 160456Z AUTO 00000KT 10SM OVC010 19/18 A2992 A02 19
METAR K1B1 160356Z AUTO 00000KT 10SM SCT012 SCT110 18/17 A2990 A02 18
METAR K1B1 160256Z AUTO 00000KT 10SM SCT110 19/18 A2990 A02 17
METAR K1B1 160156Z AUTO 00000KT 10SM SCT110 21/17 A2990 A02 16
METAR K1B1 160056Z AUTO 21004KT 10SM BKN110 23/19 A2990 A02 15
METAR K1B1 152356Z AUTO 00000KT 10SM SCT070 SCT080 23/20 A2990 A02 14
METAR K1B1 152256Z AUTO 19007KT 10SM CLR 25/20 A2988 A02 13
METAR K1B1 152156Z AUTO 20007KT 10SM CLR 26/20 A2985 A02 12
METAR K1B1 152056Z AUTO 19008KT 10SM CLR 27/19 A2987 A02 11
METAR K1B1 151956Z AUTO 18009KT 10SM CLR 26/19 A2988 A02 10
METAR K1B1 151856Z AUTO 20011G14KT 10SM SCT025 SCT080 26/19 A2990 A02 9
METAR K1B1 151756Z AUTO 21009KT 10SM SCT027 SCT043 BKN070 26/19 A2991 A02 8
METAR K1B1 151656Z AUTO 20008KT 10SM SCT023 OVC049 25/19 A2990 A02 7
METAR K1B1 151556Z AUTO 20009KT 10SM BKN021 25/19 A2991 A02 6
METAR K1B1 151456Z AUTO 21007KT 10SM OVC015 23/19 A2992 A02 5
METAR K1B1 151356Z AUTO 21007KT 10SM BKN013 OVC055 23/19 A2993 A02 4
METAR K1B1 151256Z AUTO 20007KT 10SM OVC011 21/19 A2993 A02 3
METAR K1B1 151156Z AUTO 18005KT 10SM SCT011 BKN046 OVC050 20/19 A2993 A02 2
METAR K1B1 151056Z AUTO 16004KT 10SM SCT034 OVC050 19/18 A2994 A02 P0001 1
METAR K1B1 150956Z AUTO 00000KT 7SM RA OVC014 19/18 A2994 A02 P0009 0
METAR K1B1 150856Z AUTO 00000KT 7SM OVC055 19/18 A2994 A02 69
METAR K1B1 150756Z AUTO 00000KT 7SM -RA SCT037 OVC065 19/18 A2994 A02 P0002 68
METAR K1B1 150656Z AUTO 00000KT 7SM RA SCT038 SCT049 OVC080 19/18 A2994 A02 P0009 67
METAR K1B1 150556Z AUTO 00000KT 10SM OVC075 20/18 A2994 A02 66
METAR K1B1 150456Z AUTO 17003KT 10SM SCT085 BKN110 20/17 A2994 A02 65
METAR K1B1 150356Z AUTO 00000KT 10SM BKN095 BKN110 18/17 A2995 A02 64
METAR K1B1 150256Z AUTO 00000KT 10SM SCT095 18/17 A2996 A02 63
METAR K1B1 150156Z AUTO 00000KT 10SM SCT043 19/17 A2997 A02 62
METAR K1B1 150056Z AUTO 00000KT 10SM CLR 20/17 A2997 A02 61
METAR K1B1 142356Z AUTO 00000KT 10SM CLR 22/18 A2996 A02 60
METAR K1B1 142256Z AUTO 00000KT 10SM CLR 25/18 A2997 A02 59
METAR K1B1 142156Z AUTO 21004KT 10SM CLR 26/17 A2998 A02 58
METAR K1B1 142056Z AUTO 20004KT 10SM CLR 26/17 A2999 A02 57
METAR K1B1 141956Z AUTO 22004KT 10SM CLR 26/17 A3001 A02 56
METAR K1B1 141856Z AUTO 19004KT 10SM CLR 26/16 A3002 A02 55
METAR K1B1 141756Z AUTO 23003KT 10SM CLR 25/16 A3004 A02 54
METAR K1B1 141656Z AUTO 00000KT 10SM CLR 24/16 A3004 A02 53
METAR K1B1 141556Z AUTO 00000KT 10SM CLR 24/16 A3006 A02 52
METAR K1B1 141456Z AUTO 00000KT 10SM CLR 22/17 A3007 A02 51
METAR K1B1 141356Z AUTO 00000KT 10SM CLR 19/16 A3008 A02 50
METAR K1B1 141256Z AUTO 00000KT 10SM CLR 17/15 A3008 A02 49
METAR K1B1 141156Z AUTO 00000KT 10SM CLR 16/14 A3008 A02 48
METAR K1B1 141056Z AUTO 00000KT 10SM CLR 14/13 A3008 A02 47
METAR K1B1 140956Z AUTO 00000KT 10SM CLR 13/13 A3007 A02 46
METAR K1B1 140856Z AUTO 00000KT 10SM CLR 14/13 A3005 A02 45
METAR K1B1 140756Z AUTO 00000KT 10SM CLR 15/14 A3006 A02 44